KCSG

Columbus Airport

Airport
ICAO code
KCSG
IATA Code
CSG
Summary
ICAO Region
NAM
ICAO Territory
Location

Columbus, Georgia

Serving
Columbus
Elevation
397 ft
Coordinates
32° 30' 54" N , 84° 56' 26" W
KCC
Metar
KCSG 250351Z AUTO 00000KT 10SM CLR 25/20 A2991 RMK AO2 SLP122 T02500200

Description

Columbus Airport is a public use airport located 4 nm northeast of the central business district of Columbus, a city in Muscogee County, Georgia, USA.

Airport map

Aerial View

SKYbrary Partners:

Safety knowledge contributed by: